Marine Rouge — JG5115 — position and weather

sailwx.info

Track history (hours):
 
Tides and Currents Weather Stations Pressure Air Temp Water Temp Dewpoint Dewpoint Depression Visibility Wind Speed Wind Dir Waves Ship Positions

Marine Rouge

Last reported at 2017-Oct-18 11:30 UTC. Time now 2017-Oct-18 11:39 UTC.
Position N 35°28' E 139°40'.

Length 52 m; draft 2.8 m.

Type: Passenger vessel. MMSI: 431000518.

Date/timePositionNaut miles runAvg speedWind from/ knotsBaromVisibWave heightAir tempDewpointWater temp
2017-Oct-18 11:30N 35°28' E 139°40'0 0.8
2017-Oct-18 11:01N 35°28' E 139°40'1 2.2
2017-Oct-18 10:31N 35°27' E 139°39'1 1.2
2017-Oct-18 10:00N 35°27' E 139°39'0 0.0
2017-Oct-18 09:30N 35°27' E 139°39'0 0.0
2017-Oct-18 09:00N 35°27' E 139°39'0 0.0
2017-Oct-18 08:30N 35°27' E 139°39'1 2.7
2017-Oct-18 08:00N 35°27' E 139°41'2 3.2
2017-Oct-18 07:30N 35°27' E 139°39'1 1.0
2017-Oct-18 07:00N 35°27' E 139°39'0 0.0
2017-Oct-18 06:30N 35°27' E 139°39'3 5.6
2017-Oct-18 06:00N 35°28' E 139°42'3 5.6
2017-Oct-18 05:30N 35°27' E 139°39'0 0.0
2017-Oct-18 05:00N 35°27' E 139°39'1 2.2
2017-Oct-18 04:30N 35°28' E 139°40'1 2.3
2017-Oct-18 04:00N 35°27' E 139°41'2 3.5
2017-Oct-18 03:30N 35°27' E 139°39'1 1.0
2017-Oct-18 03:00N 35°27' E 139°39'0 0.0
2017-Oct-18 02:30N 35°27' E 139°39'0 0.0
2017-Oct-18 02:00N 35°27' E 139°39'0 0.0
2017-Oct-18 01:30N 35°27' E 139°39'0 0.0
2017-Oct-18 01:00N 35°27' E 139°39'0 0.0
2017-Oct-18 00:30N 35°27' E 139°39'0 0.0
2017-Oct-17 11:57N 35°27' E 139°39'2 4.4
2017-Oct-17 11:30N 35°28' E 139°41'2 3.4
2017-Oct-17 11:00N 35°27' E 139°42'3 5.6
2017-Oct-17 10:30N 35°27' E 139°39'1 1.0
2017-Oct-17 10:00N 35°27' E 139°39'0 0.0
2017-Oct-17 09:30N 35°27' E 139°39'0 0.0
2017-Oct-17 09:00N 35°27' E 139°39'0 0.0
2017-Oct-17 08:30N 35°27' E 139°39'3 5.6
2017-Oct-17 08:00N 35°28' E 139°42'3 5.8
2017-Oct-17 07:30N 35°27' E 139°39'1 1.1
2017-Oct-17 07:00N 35°27' E 139°39'0 0.0
2017-Oct-17 06:30N 35°27' E 139°39'0 0.0
2017-Oct-17 06:00N 35°27' E 139°39'0 0.1
2017-Oct-17 05:30N 35°27' E 139°39'0 0.1
2017-Oct-17 05:00N 35°27' E 139°39'0 0.0
2017-Oct-17 04:30N 35°27' E 139°39'1 1.9
2017-Oct-17 04:00N 35°28' E 139°39'3 5.9
2017-Oct-17 03:30N 35°27' E 139°43'3 5.8
2017-Oct-17 03:00N 35°27' E 139°39'0 0.0
2017-Oct-17 02:30N 35°27' E 139°39'0 0.0
2017-Oct-17 02:00N 35°27' E 139°39'0 0.0
2017-Oct-17 01:30N 35°27' E 139°39'0 0.0
2017-Oct-17 01:00N 35°27' E 139°39'0 0.1
2017-Oct-17 00:30N 35°27' E 139°39'0 0.0
2017-Oct-16 11:17N 35°27' E 139°39'1 3.9
2017-Oct-16 11:00N 35°28' E 139°39'2 4.5
2017-Oct-16 10:30N 35°28' E 139°42'1 3.0
2017-Oct-16 10:00N 35°27' E 139°41'1 1.9
2017-Oct-16 09:30N 35°27' E 139°39'0 0.9
2017-Oct-16 09:00N 35°27' E 139°39'0 0.0
2017-Oct-16 08:30N 35°27' E 139°39'0 0.0
2017-Oct-16 08:00N 35°27' E 139°39'0 0.0
2017-Oct-16 07:30N 35°27' E 139°39'0 0.0
2017-Oct-16 07:00N 35°27' E 139°39'0 0.0
2017-Oct-16 06:30N 35°27' E 139°39'3 5.8
2017-Oct-16 06:00N 35°28' E 139°43'3 5.8
2017-Oct-16 05:30N 35°27' E 139°39'0 0.0
2017-Oct-16 05:00N 35°27' E 139°39'3 5.0
2017-Oct-16 04:31N 35°28' E 139°41'2 3.2
2017-Oct-16 04:00N 35°27' E 139°40'1 1.8
2017-Oct-16 03:31N 35°27' E 139°39'1 1.1
2017-Oct-16 03:00N 35°27' E 139°39'0 0.0
2017-Oct-16 02:30N 35°27' E 139°39'0 0.0
2017-Oct-16 02:00N 35°27' E 139°39'0 0.0
2017-Oct-16 01:30N 35°27' E 139°39'0 0.0
2017-Oct-16 01:00N 35°27' E 139°39'0 0.0
2017-Oct-15 12:33N 35°27' E 139°39'0 0.0
2017-Oct-15 12:30N 35°27' E 139°39'0 0.0
2017-Oct-15 12:00N 35°27' E 139°39'1 1.5
2017-Oct-15 11:31N 35°27' E 139°39'3 5.2
2017-Oct-15 11:00N 35°27' E 139°43'3 6.2
2017-Oct-15 10:30N 35°27' E 139°39'1 1.1
2017-Oct-15 10:00N 35°27' E 139°39'0 0.0
2017-Oct-15 09:30N 35°27' E 139°39'0 0.0
2017-Oct-15 09:00N 35°27' E 139°39'0 0.0
2017-Oct-15 08:30N 35°27' E 139°39'3 5.8
2017-Oct-15 08:00N 35°28' E 139°42'3 6.0
2017-Oct-15 07:31N 35°27' E 139°39'1 1.1
2017-Oct-15 07:00N 35°27' E 139°39'0 0.0
2017-Oct-15 06:30N 35°27' E 139°39'3 5.6
2017-Oct-15 06:00N 35°28' E 139°42'3 5.6
2017-Oct-15 05:30N 35°27' E 139°39'0 0.0
2017-Oct-15 05:00N 35°27' E 139°39'0 0.0
2017-Oct-15 04:30N 35°27' E 139°39'3 6.0
2017-Oct-15 04:00N 35°28' E 139°43'3 6.5
2017-Oct-15 03:30N 35°27' E 139°39'1 1.0
2017-Oct-15 03:00N 35°27' E 139°39'0 0.0
2017-Oct-15 02:30N 35°27' E 139°39'0 0.0
2017-Oct-15 02:00N 35°27' E 139°39'0 0.0
2017-Oct-15 01:30N 35°27' E 139°39'0 0.0
2017-Oct-15 01:00N 35°27' E 139°39'0 0.0
2017-Oct-15 00:30N 35°27' E 139°39'0 0.0
2017-Oct-14 12:45N 35°27' E 139°39'1 2.2
2017-Oct-14 12:30N 35°27' E 139°39'1 1.1
2017-Oct-14 12:00N 35°27' E 139°39'3 5.6
2017-Oct-14 11:30N 35°28' E 139°42'3 5.5
2017-Oct-14 11:00N 35°28' E 139°39'0 0.9
2017-Oct-14 10:30N 35°27' E 139°39'1 1.0
2017-Oct-14 10:00N 35°27' E 139°39'0 0.0
2017-Oct-14 09:30N 35°27' E 139°39'1 1.0
2017-Oct-14 09:00N 35°27' E 139°39'1 1.0
2017-Oct-14 08:30N 35°27' E 139°39'3 5.7
2017-Oct-14 08:00N 35°28' E 139°42'3 6.1
2017-Oct-14 07:30N 35°27' E 139°39'1 1.0
2017-Oct-14 07:00N 35°27' E 139°39'0 0.0
2017-Oct-14 06:30N 35°27' E 139°39'3 5.9
2017-Oct-14 06:00N 35°28' E 139°43'3 5.9
2017-Oct-14 05:30N 35°27' E 139°39'0 0.0
2017-Oct-14 05:00N 35°27' E 139°39'0 0.0
2017-Oct-14 04:30N 35°27' E 139°39'3 5.6
2017-Oct-14 04:01N 35°28' E 139°42'3 5.2
2017-Oct-14 03:30N 35°27' E 139°39'1 1.3
2017-Oct-14 03:00N 35°27' E 139°39'0 0.0
2017-Oct-14 02:30N 35°27' E 139°39'0 0.0
2017-Oct-14 02:00N 35°27' E 139°39'0 0.0
2017-Oct-14 01:30N 35°27' E 139°39'0 0.0
2017-Oct-14 01:00N 35°27' E 139°39'0 0.0
2017-Oct-14 00:30N 35°27' E 139°39'0 0.0
2017-Oct-13 12:01N 35°27' E 139°39'0 0.0
2017-Oct-13 12:00N 35°27' E 139°39'2 3.3
2017-Oct-13 11:31N 35°28' E 139°40'2 4.7
2017-Oct-13 11:01N 35°27' E 139°43'3 6.1
2017-Oct-13 10:30N 35°27' E 139°39'1 1.4
2017-Oct-13 10:01N 35°27' E 139°39'0 0.0
2017-Oct-13 09:30N 35°27' E 139°39'0 0.0
2017-Oct-13 09:00N 35°27' E 139°39'0 0.0
2017-Oct-13 08:31N 35°27' E 139°39'3 5.9
2017-Oct-13 08:01N 35°28' E 139°43'3 6.0
2017-Oct-13 07:30N 35°27' E 139°39'1 1.4
2017-Oct-13 07:01N 35°27' E 139°39'0 0.0
2017-Oct-13 06:31N 35°27' E 139°39'3 5.7
2017-Oct-13 06:01N 35°28' E 139°42'3 5.7
2017-Oct-13 05:30N 35°27' E 139°39'1 1.2
2017-Oct-13 05:01N 35°27' E 139°39'1 1.2
2017-Oct-13 04:31N 35°27' E 139°39'3 5.6
2017-Oct-13 04:00N 35°28' E 139°42'3 5.3
2017-Oct-13 03:31N 35°28' E 139°39'1 1.6
2017-Oct-13 03:01N 35°27' E 139°39'0 0.0
2017-Oct-13 02:31N 35°27' E 139°39'0 0.0
2017-Oct-13 02:00N 35°27' E 139°39'0 0.0
2017-Oct-13 01:31N 35°27' E 139°39'0 0.0
2017-Oct-13 01:01N 35°27' E 139°39'0 0.0
2017-Oct-13 00:30N 35°27' E 139°39'0 0.0
2017-Oct-12 12:29N 35°27' E 139°39'0 0.1
2017-Oct-12 12:00N 35°27' E 139°39'1 2.5
2017-Oct-12 11:30N 35°28' E 139°40'3 5.1
2017-Oct-12 11:00N 35°26' E 139°43'3 6.3
2017-Oct-12 10:30N 35°27' E 139°39'1 1.5
2017-Oct-12 10:00N 35°27' E 139°39'0 0.0
2017-Oct-12 09:30N 35°27' E 139°39'0 0.0
2017-Oct-12 09:00N 35°27' E 139°39'0 0.4
2017-Oct-12 08:30N 35°27' E 139°39'3 5.5
2017-Oct-12 08:01N 35°27' E 139°42'3 6.2
2017-Oct-12 07:30N 35°27' E 139°39'1 1.0
2017-Oct-12 07:00N 35°27' E 139°39'0 0.0
2017-Oct-12 06:30N 35°27' E 139°39'3 5.7
2017-Oct-12 06:00N 35°28' E 139°42'3 5.7
2017-Oct-12 05:30N 35°27' E 139°39'0 0.0
2017-Oct-12 05:00N 35°27' E 139°39'0 0.2
2017-Oct-12 04:31N 35°27' E 139°39'3 5.5
2017-Oct-12 04:00N 35°28' E 139°42'3 5.5
2017-Oct-12 03:31N 35°27' E 139°39'1 1.3
2017-Oct-12 03:00N 35°27' E 139°39'0 0.0
2017-Oct-12 02:30N 35°27' E 139°39'0 0.0
2017-Oct-12 02:00N 35°27' E 139°39'0 0.0
2017-Oct-12 01:30N 35°27' E 139°39'0 0.0
2017-Oct-12 01:00N 35°27' E 139°39'0 0.0
2017-Oct-10 12:25N 35°27' E 139°39'1 1.4
2017-Oct-10 11:37N 35°28' E 139°40'2 5.9
2017-Oct-10 11:19N 35°28' E 139°42'2 3.1
2017-Oct-10 10:50N 35°27' E 139°41'1 0.5
2017-Oct-10 08:18N 35°28' E 139°40'1 1.8
2017-Oct-10 07:45N 35°27' E 139°41'2 6.0
2017-Oct-10 07:29N 35°27' E 139°39'1 1.1
2017-Oct-10 07:00N 35°27' E 139°39'0 0.0
2017-Oct-10 06:30N 35°27' E 139°39'3 6.0
2017-Oct-10 06:00N 35°27' E 139°43'3 6.0
2017-Oct-10 05:30N 35°27' E 139°39'0 0.0
2017-Oct-10 05:00N 35°27' E 139°39'0 0.0
2017-Oct-10 04:30N 35°27' E 139°39'3 5.7
2017-Oct-10 04:00N 35°28' E 139°42'3 5.5
2017-Oct-10 03:30N 35°27' E 139°39'1 1.5
2017-Oct-10 03:00N 35°27' E 139°39'0 0.0
2017-Oct-10 02:30N 35°27' E 139°39'0 0.0
2017-Oct-10 02:00N 35°27' E 139°39'0 0.0
2017-Oct-10 01:30N 35°27' E 139°39'0 0.0
2017-Oct-10 01:00N 35°27' E 139°39'1 0.1
2017-Oct-09 11:34N 35°28' E 139°40'2 6.8
2017-Oct-09 11:18N 35°28' E 139°42'2 0.5
2017-Oct-09 08:14N 35°28' E 139°40'2 7.6
2017-Oct-09 07:59N 35°28' E 139°42'2 1.1
2017-Oct-09 06:17N 35°28' E 139°40'0 0.1
2017-Oct-09 04:13N 35°28' E 139°40'2 7.6
2017-Oct-09 03:59N 35°28' E 139°42'3 0.2
2017-Oct-08 12:35N 35°27' E 139°39'0 2.2
2017-Oct-08 12:30N 35°27' E 139°39'0 0.3
2017-Oct-08 12:01N 35°27' E 139°39'1 2.7
2017-Oct-08 11:31N 35°28' E 139°40'  
Track history (hours):
 
Tides and Currents Weather Stations Pressure Air Temp Water Temp Dewpoint Dewpoint Depression Visibility Wind Speed Wind Dir Waves Ship Positions

Marine Rouge

Last reported at 2017-Oct-18 11:30 UTC. Time now 2017-Oct-18 11:39 UTC.
Position N 35°28' E 139°40'.

Length 52 m; draft 2.8 m.

Type: Passenger vessel. MMSI: 431000518.

Date/timePositionNaut miles runAvg speedWind from/ knotsBaromVisibWave heightAir tempDewpointWater temp
2017-Oct-18 11:30N 35°28' E 139°40'0 0.8
2017-Oct-18 11:01N 35°28' E 139°40'1 2.2
2017-Oct-18 10:31N 35°27' E 139°39'1 1.2
2017-Oct-18 10:00N 35°27' E 139°39'0 0.0
2017-Oct-18 09:30N 35°27' E 139°39'0 0.0
2017-Oct-18 09:00N 35°27' E 139°39'0 0.0
2017-Oct-18 08:30N 35°27' E 139°39'1 2.7
2017-Oct-18 08:00N 35°27' E 139°41'2 3.2
2017-Oct-18 07:30N 35°27' E 139°39'1 1.0
2017-Oct-18 07:00N 35°27' E 139°39'0 0.0
2017-Oct-18 06:30N 35°27' E 139°39'3 5.6
2017-Oct-18 06:00N 35°28' E 139°42'3 5.6
2017-Oct-18 05:30N 35°27' E 139°39'0 0.0
2017-Oct-18 05:00N 35°27' E 139°39'1 2.2
2017-Oct-18 04:30N 35°28' E 139°40'1 2.3
2017-Oct-18 04:00N 35°27' E 139°41'2 3.5
2017-Oct-18 03:30N 35°27' E 139°39'1 1.0
2017-Oct-18 03:00N 35°27' E 139°39'0 0.0
2017-Oct-18 02:30N 35°27' E 139°39'0 0.0
2017-Oct-18 02:00N 35°27' E 139°39'0 0.0
2017-Oct-18 01:30N 35°27' E 139°39'0 0.0
2017-Oct-18 01:00N 35°27' E 139°39'0 0.0
2017-Oct-18 00:30N 35°27' E 139°39'0 0.0
2017-Oct-17 11:57N 35°27' E 139°39'2 4.4
2017-Oct-17 11:30N 35°28' E 139°41'2 3.4
2017-Oct-17 11:00N 35°27' E 139°42'3 5.6
2017-Oct-17 10:30N 35°27' E 139°39'1 1.0
2017-Oct-17 10:00N 35°27' E 139°39'0 0.0
2017-Oct-17 09:30N 35°27' E 139°39'0 0.0
2017-Oct-17 09:00N 35°27' E 139°39'0 0.0
2017-Oct-17 08:30N 35°27' E 139°39'3 5.6
2017-Oct-17 08:00N 35°28' E 139°42'3 5.8
2017-Oct-17 07:30N 35°27' E 139°39'1 1.1
2017-Oct-17 07:00N 35°27' E 139°39'0 0.0
2017-Oct-17 06:30N 35°27' E 139°39'0 0.0
2017-Oct-17 06:00N 35°27' E 139°39'0 0.1
2017-Oct-17 05:30N 35°27' E 139°39'0 0.1
2017-Oct-17 05:00N 35°27' E 139°39'0 0.0
2017-Oct-17 04:30N 35°27' E 139°39'1 1.9
2017-Oct-17 04:00N 35°28' E 139°39'3 5.9
2017-Oct-17 03:30N 35°27' E 139°43'3 5.8
2017-Oct-17 03:00N 35°27' E 139°39'0 0.0
2017-Oct-17 02:30N 35°27' E 139°39'0 0.0
2017-Oct-17 02:00N 35°27' E 139°39'0 0.0
2017-Oct-17 01:30N 35°27' E 139°39'0 0.0
2017-Oct-17 01:00N 35°27' E 139°39'0 0.1
2017-Oct-17 00:30N 35°27' E 139°39'0 0.0
2017-Oct-16 11:17N 35°27' E 139°39'1 3.9
2017-Oct-16 11:00N 35°28' E 139°39'2 4.5
2017-Oct-16 10:30N 35°28' E 139°42'1 3.0
2017-Oct-16 10:00N 35°27' E 139°41'1 1.9
2017-Oct-16 09:30N 35°27' E 139°39'0 0.9
2017-Oct-16 09:00N 35°27' E 139°39'0 0.0
2017-Oct-16 08:30N 35°27' E 139°39'0 0.0
2017-Oct-16 08:00N 35°27' E 139°39'0 0.0
2017-Oct-16 07:30N 35°27' E 139°39'0 0.0
2017-Oct-16 07:00N 35°27' E 139°39'0 0.0
2017-Oct-16 06:30N 35°27' E 139°39'3 5.8
2017-Oct-16 06:00N 35°28' E 139°43'3 5.8
2017-Oct-16 05:30N 35°27' E 139°39'0 0.0
2017-Oct-16 05:00N 35°27' E 139°39'3 5.0
2017-Oct-16 04:31N 35°28' E 139°41'2 3.2
2017-Oct-16 04:00N 35°27' E 139°40'1 1.8
2017-Oct-16 03:31N 35°27' E 139°39'1 1.1
2017-Oct-16 03:00N 35°27' E 139°39'0 0.0
2017-Oct-16 02:30N 35°27' E 139°39'0 0.0
2017-Oct-16 02:00N 35°27' E 139°39'0 0.0
2017-Oct-16 01:30N 35°27' E 139°39'0 0.0
2017-Oct-16 01:00N 35°27' E 139°39'0 0.0
2017-Oct-15 12:33N 35°27' E 139°39'0 0.0
2017-Oct-15 12:30N 35°27' E 139°39'0 0.0
2017-Oct-15 12:00N 35°27' E 139°39'1 1.5
2017-Oct-15 11:31N 35°27' E 139°39'3 5.2
2017-Oct-15 11:00N 35°27' E 139°43'3 6.2
2017-Oct-15 10:30N 35°27' E 139°39'1 1.1
2017-Oct-15 10:00N 35°27' E 139°39'0 0.0
2017-Oct-15 09:30N 35°27' E 139°39'0 0.0
2017-Oct-15 09:00N 35°27' E 139°39'0 0.0
2017-Oct-15 08:30N 35°27' E 139°39'3 5.8
2017-Oct-15 08:00N 35°28' E 139°42'3 6.0
2017-Oct-15 07:31N 35°27' E 139°39'1 1.1
2017-Oct-15 07:00N 35°27' E 139°39'0 0.0
2017-Oct-15 06:30N 35°27' E 139°39'3 5.6
2017-Oct-15 06:00N 35°28' E 139°42'3 5.6
2017-Oct-15 05:30N 35°27' E 139°39'0 0.0
2017-Oct-15 05:00N 35°27' E 139°39'0 0.0
2017-Oct-15 04:30N 35°27' E 139°39'3 6.0
2017-Oct-15 04:00N 35°28' E 139°43'3 6.5
2017-Oct-15 03:30N 35°27' E 139°39'1 1.0
2017-Oct-15 03:00N 35°27' E 139°39'0 0.0
2017-Oct-15 02:30N 35°27' E 139°39'0 0.0
2017-Oct-15 02:00N 35°27' E 139°39'0 0.0
2017-Oct-15 01:30N 35°27' E 139°39'0 0.0
2017-Oct-15 01:00N 35°27' E 139°39'0 0.0
2017-Oct-15 00:30N 35°27' E 139°39'0 0.0
2017-Oct-14 12:45N 35°27' E 139°39'1 2.2
2017-Oct-14 12:30N 35°27' E 139°39'1 1.1
2017-Oct-14 12:00N 35°27' E 139°39'3 5.6
2017-Oct-14 11:30N 35°28' E 139°42'3 5.5
2017-Oct-14 11:00N 35°28' E 139°39'0 0.9
2017-Oct-14 10:30N 35°27' E 139°39'1 1.0
2017-Oct-14 10:00N 35°27' E 139°39'0 0.0
2017-Oct-14 09:30N 35°27' E 139°39'1 1.0
2017-Oct-14 09:00N 35°27' E 139°39'1 1.0
2017-Oct-14 08:30N 35°27' E 139°39'3 5.7
2017-Oct-14 08:00N 35°28' E 139°42'3 6.1
2017-Oct-14 07:30N 35°27' E 139°39'1 1.0
2017-Oct-14 07:00N 35°27' E 139°39'0 0.0
2017-Oct-14 06:30N 35°27' E 139°39'3 5.9
2017-Oct-14 06:00N 35°28' E 139°43'3 5.9
2017-Oct-14 05:30N 35°27' E 139°39'0 0.0
2017-Oct-14 05:00N 35°27' E 139°39'0 0.0
2017-Oct-14 04:30N 35°27' E 139°39'3 5.6
2017-Oct-14 04:01N 35°28' E 139°42'3 5.2
2017-Oct-14 03:30N 35°27' E 139°39'1 1.3
2017-Oct-14 03:00N 35°27' E 139°39'0 0.0
2017-Oct-14 02:30N 35°27' E 139°39'0 0.0
2017-Oct-14 02:00N 35°27' E 139°39'0 0.0
2017-Oct-14 01:30N 35°27' E 139°39'0 0.0
2017-Oct-14 01:00N 35°27' E 139°39'0 0.0
2017-Oct-14 00:30N 35°27' E 139°39'0 0.0
2017-Oct-13 12:01N 35°27' E 139°39'0 0.0
2017-Oct-13 12:00N 35°27' E 139°39'2 3.3
2017-Oct-13 11:31N 35°28' E 139°40'2 4.7
2017-Oct-13 11:01N 35°27' E 139°43'3 6.1
2017-Oct-13 10:30N 35°27' E 139°39'1 1.4
2017-Oct-13 10:01N 35°27' E 139°39'0 0.0
2017-Oct-13 09:30N 35°27' E 139°39'0 0.0
2017-Oct-13 09:00N 35°27' E 139°39'0 0.0
2017-Oct-13 08:31N 35°27' E 139°39'3 5.9
2017-Oct-13 08:01N 35°28' E 139°43'3 6.0
2017-Oct-13 07:30N 35°27' E 139°39'1 1.4
2017-Oct-13 07:01N 35°27' E 139°39'0 0.0
2017-Oct-13 06:31N 35°27' E 139°39'3 5.7
2017-Oct-13 06:01N 35°28' E 139°42'3 5.7
2017-Oct-13 05:30N 35°27' E 139°39'1 1.2
2017-Oct-13 05:01N 35°27' E 139°39'1 1.2
2017-Oct-13 04:31N 35°27' E 139°39'3 5.6
2017-Oct-13 04:00N 35°28' E 139°42'3 5.3
2017-Oct-13 03:31N 35°28' E 139°39'1 1.6
2017-Oct-13 03:01N 35°27' E 139°39'0 0.0
2017-Oct-13 02:31N 35°27' E 139°39'0 0.0
2017-Oct-13 02:00N 35°27' E 139°39'0 0.0
2017-Oct-13 01:31N 35°27' E 139°39'0 0.0
2017-Oct-13 01:01N 35°27' E 139°39'0 0.0
2017-Oct-13 00:30N 35°27' E 139°39'0 0.0
2017-Oct-12 12:29N 35°27' E 139°39'0 0.1
2017-Oct-12 12:00N 35°27' E 139°39'1 2.5
2017-Oct-12 11:30N 35°28' E 139°40'3 5.1
2017-Oct-12 11:00N 35°26' E 139°43'3 6.3
2017-Oct-12 10:30N 35°27' E 139°39'1 1.5
2017-Oct-12 10:00N 35°27' E 139°39'0 0.0
2017-Oct-12 09:30N 35°27' E 139°39'0 0.0
2017-Oct-12 09:00N 35°27' E 139°39'0 0.4
2017-Oct-12 08:30N 35°27' E 139°39'3 5.5
2017-Oct-12 08:01N 35°27' E 139°42'3 6.2
2017-Oct-12 07:30N 35°27' E 139°39'1 1.0
2017-Oct-12 07:00N 35°27' E 139°39'0 0.0
2017-Oct-12 06:30N 35°27' E 139°39'3 5.7
2017-Oct-12 06:00N 35°28' E 139°42'3 5.7
2017-Oct-12 05:30N 35°27' E 139°39'0 0.0
2017-Oct-12 05:00N 35°27' E 139°39'0 0.2
2017-Oct-12 04:31N 35°27' E 139°39'3 5.5
2017-Oct-12 04:00N 35°28' E 139°42'3 5.5
2017-Oct-12 03:31N 35°27' E 139°39'1 1.3
2017-Oct-12 03:00N 35°27' E 139°39'0 0.0
2017-Oct-12 02:30N 35°27' E 139°39'0 0.0
2017-Oct-12 02:00N 35°27' E 139°39'0 0.0
2017-Oct-12 01:30N 35°27' E 139°39'0 0.0
2017-Oct-12 01:00N 35°27' E 139°39'0 0.0
2017-Oct-10 12:25N 35°27' E 139°39'1 1.4
2017-Oct-10 11:37N 35°28' E 139°40'2 5.9
2017-Oct-10 11:19N 35°28' E 139°42'2 3.1
2017-Oct-10 10:50N 35°27' E 139°41'1 0.5
2017-Oct-10 08:18N 35°28' E 139°40'1 1.8
2017-Oct-10 07:45N 35°27' E 139°41'2 6.0
2017-Oct-10 07:29N 35°27' E 139°39'1 1.1
2017-Oct-10 07:00N 35°27' E 139°39'0 0.0
2017-Oct-10 06:30N 35°27' E 139°39'3 6.0
2017-Oct-10 06:00N 35°27' E 139°43'3 6.0
2017-Oct-10 05:30N 35°27' E 139°39'0 0.0
2017-Oct-10 05:00N 35°27' E 139°39'0 0.0
2017-Oct-10 04:30N 35°27' E 139°39'3 5.7
2017-Oct-10 04:00N 35°28' E 139°42'3 5.5
2017-Oct-10 03:30N 35°27' E 139°39'1 1.5
2017-Oct-10 03:00N 35°27' E 139°39'0 0.0
2017-Oct-10 02:30N 35°27' E 139°39'0 0.0
2017-Oct-10 02:00N 35°27' E 139°39'0 0.0
2017-Oct-10 01:30N 35°27' E 139°39'0 0.0
2017-Oct-10 01:00N 35°27' E 139°39'1 0.1
2017-Oct-09 11:34N 35°28' E 139°40'2 6.8
2017-Oct-09 11:18N 35°28' E 139°42'2 0.5
2017-Oct-09 08:14N 35°28' E 139°40'2 7.6
2017-Oct-09 07:59N 35°28' E 139°42'2 1.1
2017-Oct-09 06:17N 35°28' E 139°40'0 0.1
2017-Oct-09 04:13N 35°28' E 139°40'2 7.6
2017-Oct-09 03:59N 35°28' E 139°42'3 0.2
2017-Oct-08 12:35N 35°27' E 139°39'0 2.2
2017-Oct-08 12:30N 35°27' E 139°39'0 0.3
2017-Oct-08 12:01N 35°27' E 139°39'1 2.7
2017-Oct-08 11:31N 35°28' E 139°40'  

Dump ship's entire track history